sensor_id;sensor_type;location;lat;lon;timestamp;temperature;humidity
2465;DHT22;1244;54.326;10.074;2022-10-31T00:00:58;13.10;99.90
2465;DHT22;1244;54.326;10.074;2022-10-31T00:03:24;13.20;99.90
2465;DHT22;1244;54.326;10.074;2022-10-31T00:05:49;13.20;99.90
2465;DHT22;1244;54.326;10.074;2022-10-31T00:08:16;13.10;99.90
2465;DHT22;1244;54.326;10.074;2022-10-31T00:10:43;13.10;99.90
2465;DHT22;1244;54.326;10.074;2022-10-31T00:13:09;13.00;99.90
2465;DHT22;1244;54.326;10.074;2022-10-31T00:15:36;13.10;99.90
2465;DHT22;1244;54.326;10.074;2022-10-31T00:18:03;12.90;99.90
2465;DHT22;1244;54.326;10.074;2022-10-31T00:20:29;13.00;99.90
2465;DHT22;1244;54.326;10.074;2022-10-31T00:22:59;12.90;99.90
2465;DHT22;1244;54.326;10.074;2022-10-31T00:25:26;13.10;99.90
2465;DHT22;1244;54.326;10.074;2022-10-31T00:27:52;13.00;99.90
2465;DHT22;1244;54.326;10.074;2022-10-31T00:30:17;12.90;99.90
2465;DHT22;1244;54.326;10.074;2022-10-31T00:32:43;12.80;99.90
2465;DHT22;1244;54.326;10.074;2022-10-31T00:35:08;12.80;99.90
2465;DHT22;1244;54.326;10.074;2022-10-31T00:37:34;12.90;99.90
2465;DHT22;1244;54.326;10.074;2022-10-31T00:39:59;12.80;99.90
2465;DHT22;1244;54.326;10.074;2022-10-31T00:42:25;12.80;99.90
2465;DHT22;1244;54.326;10.074;2022-10-31T00:44:50;12.60;99.90
2465;DHT22;1244;54.326;10.074;2022-10-31T00:47:16;12.50;99.90
2465;DHT22;1244;54.326;10.074;2022-10-31T00:49:41;12.40;99.90
2465;DHT22;1244;54.326;10.074;2022-10-31T00:52:07;12.30;99.90
2465;DHT22;1244;54.326;10.074;2022-10-31T00:54:32;12.50;99.90
2465;DHT22;1244;54.326;10.074;2022-10-31T00:56:58;12.40;99.90
2465;DHT22;1244;54.326;10.074;2022-10-31T00:59:23;12.60;99.90
2465;DHT22;1244;54.326;10.074;2022-10-31T01:01:49;12.70;99.90
2465;DHT22;1244;54.326;10.074;2022-10-31T01:04:14;12.80;99.90
2465;DHT22;1244;54.326;10.074;2022-10-31T01:06:40;12.90;99.90
2465;DHT22;1244;54.326;10.074;2022-10-31T01:09:05;12.70;99.90
2465;DHT22;1244;54.326;10.074;2022-10-31T01:11:31;12.80;99.90
2465;DHT22;1244;54.326;10.074;2022-10-31T01:13:56;12.80;99.90
2465;DHT22;1244;54.326;10.074;2022-10-31T01:16:23;12.80;99.90
2465;DHT22;1244;54.326;10.074;2022-10-31T01:18:50;12.60;99.90
2465;DHT22;1244;54.326;10.074;2022-10-31T01:21:18;12.80;99.90
2465;DHT22;1244;54.326;10.074;2022-10-31T01:23:45;12.80;99.90
2465;DHT22;1244;54.326;10.074;2022-10-31T01:26:16;12.80;99.90
2465;DHT22;1244;54.326;10.074;2022-10-31T01:28:50;12.80;99.90
2465;DHT22;1244;54.326;10.074;2022-10-31T01:31:18;12.70;99.90
2465;DHT22;1244;54.326;10.074;2022-10-31T01:33:44;12.80;99.90
2465;DHT22;1244;54.326;10.074;2022-10-31T01:36:34;12.80;99.90
2465;DHT22;1244;54.326;10.074;2022-10-31T01:39:10;12.70;99.90
2465;DHT22;1244;54.326;10.074;2022-10-31T01:41:39;12.60;99.90
2465;DHT22;1244;54.326;10.074;2022-10-31T01:52:18;12.90;99.90
2465;DHT22;1244;54.326;10.074;2022-10-31T01:54:50;13.00;99.90
2465;DHT22;1244;54.326;10.074;2022-10-31T01:57:17;13.20;99.90
2465;DHT22;1244;54.326;10.074;2022-10-31T01:59:48;13.20;99.90
2465;DHT22;1244;54.326;10.074;2022-10-31T02:02:15;13.30;99.90
2465;DHT22;1244;54.326;10.074;2022-10-31T02:04:41;13.30;99.90
2465;DHT22;1244;54.326;10.074;2022-10-31T02:07:12;13.30;99.90
2465;DHT22;1244;54.326;10.074;2022-10-31T02:09:39;13.30;99.90
2465;DHT22;1244;54.326;10.074;2022-10-31T02:12:06;13.30;99.90
2465;DHT22;1244;54.326;10.074;2022-10-31T02:14:34;13.30;99.90
2465;DHT22;1244;54.326;10.074;2022-10-31T02:17:00;13.30;99.90
2465;DHT22;1244;54.326;10.074;2022-10-31T02:25:24;13.30;99.90
2465;DHT22;1244;54.326;10.074;2022-10-31T02:28:24;13.30;99.90
2465;DHT22;1244;54.326;10.074;2022-10-31T02:34:00;13.10;99.90
2465;DHT22;1244;54.326;10.074;2022-10-31T02:39:18;13.00;99.90
2465;DHT22;1244;54.326;10.074;2022-10-31T02:47:45;13.00;99.90
2465;DHT22;1244;54.326;10.074;2022-10-31T02:50:21;13.00;99.90
2465;DHT22;1244;54.326;10.074;2022-10-31T02:52:50;13.00;99.90
2465;DHT22;1244;54.326;10.074;2022-10-31T02:57:48;13.00;99.90
2465;DHT22;1244;54.326;10.074;2022-10-31T03:00:16;13.00;99.90
2465;DHT22;1244;54.326;10.074;2022-10-31T03:03:02;13.00;99.90
2465;DHT22;1244;54.326;10.074;2022-10-31T03:05:37;13.00;99.90
2465;DHT22;1244;54.326;10.074;2022-10-31T03:08:22;12.90;99.90
2465;DHT22;1244;54.326;10.074;2022-10-31T03:10:59;12.90;99.90
2465;DHT22;1244;54.326;10.074;2022-10-31T03:13:54;13.00;99.90
2465;DHT22;1244;54.326;10.074;2022-10-31T03:16:49;12.90;99.90
2465;DHT22;1244;54.326;10.074;2022-10-31T03:19:27;12.90;99.90
2465;DHT22;1244;54.326;10.074;2022-10-31T03:22:04;12.90;99.90
2465;DHT22;1244;54.326;10.074;2022-10-31T03:24:37;12.90;99.90
2465;DHT22;1244;54.326;10.074;2022-10-31T03:27:06;12.90;99.90
2465;DHT22;1244;54.326;10.074;2022-10-31T03:29:35;12.90;99.90
2465;DHT22;1244;54.326;10.074;2022-10-31T03:34:37;12.90;99.90
2465;DHT22;1244;54.326;10.074;2022-10-31T03:37:06;12.90;99.90
2465;DHT22;1244;54.326;10.074;2022-10-31T03:39:33;12.90;99.90
2465;DHT22;1244;54.326;10.074;2022-10-31T03:42:05;12.90;99.90
2465;DHT22;1244;54.326;10.074;2022-10-31T03:44:32;12.90;99.90
2465;DHT22;1244;54.326;10.074;2022-10-31T03:46:58;12.80;99.90
2465;DHT22;1244;54.326;10.074;2022-10-31T03:49:25;12.80;99.90
2465;DHT22;1244;54.326;10.074;2022-10-31T03:59:44;12.90;99.90
2465;DHT22;1244;54.326;10.074;2022-10-31T04:02:18;12.90;99.90
2465;DHT22;1244;54.326;10.074;2022-10-31T04:04:44;12.90;99.90
2465;DHT22;1244;54.326;10.074;2022-10-31T04:07:11;12.90;99.90
2465;DHT22;1244;54.326;10.074;2022-10-31T04:09:40;13.00;99.90
2465;DHT22;1244;54.326;10.074;2022-10-31T04:12:08;12.90;99.90
2465;DHT22;1244;54.326;10.074;2022-10-31T04:14:37;12.90;99.90
2465;DHT22;1244;54.326;10.074;2022-10-31T04:17:05;12.90;99.90
2465;DHT22;1244;54.326;10.074;2022-10-31T04:19:32;12.90;99.90
2465;DHT22;1244;54.326;10.074;2022-10-31T04:21:58;12.90;99.90
2465;DHT22;1244;54.326;10.074;2022-10-31T04:24:23;12.90;99.90
2465;DHT22;1244;54.326;10.074;2022-10-31T04:26:49;12.90;99.90
2465;DHT22;1244;54.326;10.074;2022-10-31T04:29:14;12.90;99.90
2465;DHT22;1244;54.326;10.074;2022-10-31T04:31:40;12.90;99.90
2465;DHT22;1244;54.326;10.074;2022-10-31T04:34:05;12.90;99.90
2465;DHT22;1244;54.326;10.074;2022-10-31T04:36:32;13.00;99.90
2465;DHT22;1244;54.326;10.074;2022-10-31T04:38:58;13.00;99.90
2465;DHT22;1244;54.326;10.074;2022-10-31T04:41:23;13.00;99.90
2465;DHT22;1244;54.326;10.074;2022-10-31T04:43:49;13.00;99.90
2465;DHT22;1244;54.326;10.074;2022-10-31T04:46:14;13.00;99.90
2465;DHT22;1244;54.326;10.074;2022-10-31T04:48:40;13.00;99.90
2465;DHT22;1244;54.326;10.074;2022-10-31T04:51:05;13.00;99.90
2465;DHT22;1244;54.326;10.074;2022-10-31T04:53:31;13.00;99.90
2465;DHT22;1244;54.326;10.074;2022-10-31T04:55:58;12.90;99.90
2465;DHT22;1244;54.326;10.074;2022-10-31T04:58:25;12.90;99.90
2465;DHT22;1244;54.326;10.074;2022-10-31T05:00:54;12.90;99.90
2465;DHT22;1244;54.326;10.074;2022-10-31T05:03:20;12.90;99.90
2465;DHT22;1244;54.326;10.074;2022-10-31T05:05:46;12.90;99.90
2465;DHT22;1244;54.326;10.074;2022-10-31T05:08:11;12.90;99.90
2465;DHT22;1244;54.326;10.074;2022-10-31T05:10:37;12.80;99.90
2465;DHT22;1244;54.326;10.074;2022-10-31T05:13:03;12.90;99.90
2465;DHT22;1244;54.326;10.074;2022-10-31T05:15:29;12.90;99.90
2465;DHT22;1244;54.326;10.074;2022-10-31T05:17:55;12.90;99.90
2465;DHT22;1244;54.326;10.074;2022-10-31T05:20:24;12.90;99.90
2465;DHT22;1244;54.326;10.074;2022-10-31T05:22:52;12.90;99.90
2465;DHT22;1244;54.326;10.074;2022-10-31T05:25:20;12.90;99.90
2465;DHT22;1244;54.326;10.074;2022-10-31T05:27:48;12.90;99.90
2465;DHT22;1244;54.326;10.074;2022-10-31T05:30:16;12.90;99.90
2465;DHT22;1244;54.326;10.074;2022-10-31T05:32:46;12.90;99.90
2465;DHT22;1244;54.326;10.074;2022-10-31T05:35:20;12.90;99.90
2465;DHT22;1244;54.326;10.074;2022-10-31T05:37:46;12.90;99.90
2465;DHT22;1244;54.326;10.074;2022-10-31T05:40:13;12.90;99.90
2465;DHT22;1244;54.326;10.074;2022-10-31T05:42:40;13.00;99.90
2465;DHT22;1244;54.326;10.074;2022-10-31T05:45:08;13.00;99.90
2465;DHT22;1244;54.326;10.074;2022-10-31T05:47:33;13.00;99.90
2465;DHT22;1244;54.326;10.074;2022-10-31T05:49:59;13.00;99.90
2465;DHT22;1244;54.326;10.074;2022-10-31T05:52:24;13.00;99.90
2465;DHT22;1244;54.326;10.074;2022-10-31T05:54:50;12.90;99.90
2465;DHT22;1244;54.326;10.074;2022-10-31T05:57:15;12.90;99.90
2465;DHT22;1244;54.326;10.074;2022-10-31T05:59:41;12.90;99.90
2465;DHT22;1244;54.326;10.074;2022-10-31T06:02:06;12.90;99.90
2465;DHT22;1244;54.326;10.074;2022-10-31T06:04:32;12.80;99.90
2465;DHT22;1244;54.326;10.074;2022-10-31T06:06:57;12.80;99.90
2465;DHT22;1244;54.326;10.074;2022-10-31T06:09:23;12.80;99.90
2465;DHT22;1244;54.326;10.074;2022-10-31T06:11:48;12.80;99.90
2465;DHT22;1244;54.326;10.074;2022-10-31T06:14:14;12.70;99.90
2465;DHT22;1244;54.326;10.074;2022-10-31T06:16:39;12.70;99.90
2465;DHT22;1244;54.326;10.074;2022-10-31T06:19:05;12.60;99.90
2465;DHT22;1244;54.326;10.074;2022-10-31T06:21:31;12.60;99.90
2465;DHT22;1244;54.326;10.074;2022-10-31T06:23:56;12.50;99.90
2465;DHT22;1244;54.326;10.074;2022-10-31T06:26:22;12.60;99.90
2465;DHT22;1244;54.326;10.074;2022-10-31T06:28:47;12.60;99.90
2465;DHT22;1244;54.326;10.074;2022-10-31T06:31:13;12.60;99.90
2465;DHT22;1244;54.326;10.074;2022-10-31T06:33:41;12.60;99.90
2465;DHT22;1244;54.326;10.074;2022-10-31T06:36:07;12.70;99.90
2465;DHT22;1244;54.326;10.074;2022-10-31T06:38:32;12.70;99.90
2465;DHT22;1244;54.326;10.074;2022-10-31T06:41:01;12.70;99.90
2465;DHT22;1244;54.326;10.074;2022-10-31T06:43:26;12.70;99.90
2465;DHT22;1244;54.326;10.074;2022-10-31T06:45:53;12.70;99.90
2465;DHT22;1244;54.326;10.074;2022-10-31T06:48:18;12.70;99.90
2465;DHT22;1244;54.326;10.074;2022-10-31T06:50:44;12.80;99.90
2465;DHT22;1244;54.326;10.074;2022-10-31T06:53:10;12.70;99.90
2465;DHT22;1244;54.326;10.074;2022-10-31T06:55:35;12.80;99.90
2465;DHT22;1244;54.326;10.074;2022-10-31T06:58:01;12.80;99.90
2465;DHT22;1244;54.326;10.074;2022-10-31T07:00:28;12.80;99.90
2465;DHT22;1244;54.326;10.074;2022-10-31T07:05:20;12.80;99.90
2465;DHT22;1244;54.326;10.074;2022-10-31T07:07:45;12.70;99.90
2465;DHT22;1244;54.326;10.074;2022-10-31T07:10:11;12.70;99.90
2465;DHT22;1244;54.326;10.074;2022-10-31T07:12:36;12.70;99.90
2465;DHT22;1244;54.326;10.074;2022-10-31T07:15:03;12.80;99.90
2465;DHT22;1244;54.326;10.074;2022-10-31T07:17:29;12.80;99.90
2465;DHT22;1244;54.326;10.074;2022-10-31T07:19:54;12.70;99.90
2465;DHT22;1244;54.326;10.074;2022-10-31T07:22:20;12.70;99.90
2465;DHT22;1244;54.326;10.074;2022-10-31T07:24:45;12.70;99.90
2465;DHT22;1244;54.326;10.074;2022-10-31T07:27:11;12.80;99.90
2465;DHT22;1244;54.326;10.074;2022-10-31T07:29:36;12.90;99.90
2465;DHT22;1244;54.326;10.074;2022-10-31T07:32:02;12.90;99.90
2465;DHT22;1244;54.326;10.074;2022-10-31T07:34:27;12.90;99.90
2465;DHT22;1244;54.326;10.074;2022-10-31T07:36:53;12.90;99.90
2465;DHT22;1244;54.326;10.074;2022-10-31T07:39:19;13.00;99.90
2465;DHT22;1244;54.326;10.074;2022-10-31T07:41:44;13.00;99.90
2465;DHT22;1244;54.326;10.074;2022-10-31T07:44:10;13.00;99.90
2465;DHT22;1244;54.326;10.074;2022-10-31T07:46:35;13.00;99.90
2465;DHT22;1244;54.326;10.074;2022-10-31T07:49:01;13.00;99.90
2465;DHT22;1244;54.326;10.074;2022-10-31T07:51:26;13.10;99.90
2465;DHT22;1244;54.326;10.074;2022-10-31T07:53:52;13.00;99.90
2465;DHT22;1244;54.326;10.074;2022-10-31T07:56:17;13.10;99.90
2465;DHT22;1244;54.326;10.074;2022-10-31T07:58:43;13.10;99.90
2465;DHT22;1244;54.326;10.074;2022-10-31T08:01:08;13.00;99.90
2465;DHT22;1244;54.326;10.074;2022-10-31T08:03:34;12.90;99.90
2465;DHT22;1244;54.326;10.074;2022-10-31T08:05:59;12.90;99.90
2465;DHT22;1244;54.326;10.074;2022-10-31T08:08:25;12.90;99.90
2465;DHT22;1244;54.326;10.074;2022-10-31T08:10:53;12.90;99.90
2465;DHT22;1244;54.326;10.074;2022-10-31T08:13:19;12.90;99.90
2465;DHT22;1244;54.326;10.074;2022-10-31T08:15:44;13.00;99.90
2465;DHT22;1244;54.326;10.074;2022-10-31T08:18:15;13.00;99.90
2465;DHT22;1244;54.326;10.074;2022-10-31T08:20:42;13.00;99.90
2465;DHT22;1244;54.326;10.074;2022-10-31T08:23:09;12.90;99.90
2465;DHT22;1244;54.326;10.074;2022-10-31T08:25:35;13.00;99.90
2465;DHT22;1244;54.326;10.074;2022-10-31T08:28:01;12.90;99.90
2465;DHT22;1244;54.326;10.074;2022-10-31T08:30:30;12.90;99.90
2465;DHT22;1244;54.326;10.074;2022-10-31T08:33:04;12.90;99.90
2465;DHT22;1244;54.326;10.074;2022-10-31T08:35:31;13.00;99.90
2465;DHT22;1244;54.326;10.074;2022-10-31T08:37:57;13.00;99.90
2465;DHT22;1244;54.326;10.074;2022-10-31T08:40:23;13.00;99.90
2465;DHT22;1244;54.326;10.074;2022-10-31T08:43:04;12.90;99.90
2465;DHT22;1244;54.326;10.074;2022-10-31T08:45:31;12.70;99.90
2465;DHT22;1244;54.326;10.074;2022-10-31T08:48:01;12.70;99.90
2465;DHT22;1244;54.326;10.074;2022-10-31T08:50:28;12.70;99.90
2465;DHT22;1244;54.326;10.074;2022-10-31T08:53:20;12.80;99.90
2465;DHT22;1244;54.326;10.074;2022-10-31T08:55:46;12.90;99.90
2465;DHT22;1244;54.326;10.074;2022-10-31T08:58:14;12.90;99.90
2465;DHT22;1244;54.326;10.074;2022-10-31T09:00:41;12.90;99.90
2465;DHT22;1244;54.326;10.074;2022-10-31T09:03:10;13.00;99.90
2465;DHT22;1244;54.326;10.074;2022-10-31T09:05:36;13.10;99.90
2465;DHT22;1244;54.326;10.074;2022-10-31T09:08:04;13.10;99.90
2465;DHT22;1244;54.326;10.074;2022-10-31T09:10:30;13.10;99.90
2465;DHT22;1244;54.326;10.074;2022-10-31T09:13:02;13.00;99.90
2465;DHT22;1244;54.326;10.074;2022-10-31T09:15:31;13.20;99.90
2465;DHT22;1244;54.326;10.074;2022-10-31T09:17:57;13.10;99.90
2465;DHT22;1244;54.326;10.074;2022-10-31T09:20:23;13.10;99.90
2465;DHT22;1244;54.326;10.074;2022-10-31T09:22:55;13.20;99.90
2465;DHT22;1244;54.326;10.074;2022-10-31T09:25:21;13.30;99.90
2465;DHT22;1244;54.326;10.074;2022-10-31T09:27:46;13.30;99.90
2465;DHT22;1244;54.326;10.074;2022-10-31T09:30:12;13.40;99.90
2465;DHT22;1244;54.326;10.074;2022-10-31T09:32:37;13.30;99.90
2465;DHT22;1244;54.326;10.074;2022-10-31T09:35:03;13.30;99.90
2465;DHT22;1244;54.326;10.074;2022-10-31T09:37:28;13.10;99.90
2465;DHT22;1244;54.326;10.074;2022-10-31T09:39:54;13.20;99.90
2465;DHT22;1244;54.326;10.074;2022-10-31T09:42:56;13.20;99.90
2465;DHT22;1244;54.326;10.074;2022-10-31T09:50:52;13.40;99.90
2465;DHT22;1244;54.326;10.074;2022-10-31T09:55:51;13.40;99.90
2465;DHT22;1244;54.326;10.074;2022-10-31T09:58:20;13.40;99.90
2465;DHT22;1244;54.326;10.074;2022-10-31T10:00:48;13.50;99.90
2465;DHT22;1244;54.326;10.074;2022-10-31T10:03:36;13.40;99.90
2465;DHT22;1244;54.326;10.074;2022-10-31T10:06:06;13.60;99.90
2465;DHT22;1244;54.326;10.074;2022-10-31T10:08:35;13.70;99.90
2465;DHT22;1244;54.326;10.074;2022-10-31T10:16:57;14.00;99.90
2465;DHT22;1244;54.326;10.074;2022-10-31T10:22:24;13.80;99.90
2465;DHT22;1244;54.326;10.074;2022-10-31T10:25:22;13.90;99.90
2465;DHT22;1244;54.326;10.074;2022-10-31T10:27:58;13.90;99.90
2465;DHT22;1244;54.326;10.074;2022-10-31T10:30:32;14.20;99.90
2465;DHT22;1244;54.326;10.074;2022-10-31T10:33:03;14.40;99.90
2465;DHT22;1244;54.326;10.074;2022-10-31T10:40:28;14.40;99.90
2465;DHT22;1244;54.326;10.074;2022-10-31T10:43:22;14.40;99.90
2465;DHT22;1244;54.326;10.074;2022-10-31T10:45:51;14.30;99.90
2465;DHT22;1244;54.326;10.074;2022-10-31T10:48:43;14.30;99.90
2465;DHT22;1244;54.326;10.074;2022-10-31T10:51:35;14.20;99.90
2465;DHT22;1244;54.326;10.074;2022-10-31T10:54:33;14.20;99.90
2465;DHT22;1244;54.326;10.074;2022-10-31T11:00:23;14.30;99.90
2465;DHT22;1244;54.326;10.074;2022-10-31T11:02:50;14.40;99.90
2465;DHT22;1244;54.326;10.074;2022-10-31T11:05:30;14.40;99.90
2465;DHT22;1244;54.326;10.074;2022-10-31T11:07:58;14.40;99.90
2465;DHT22;1244;54.326;10.074;2022-10-31T11:10:23;14.40;99.90
2465;DHT22;1244;54.326;10.074;2022-10-31T11:13:17;14.50;99.90
2465;DHT22;1244;54.326;10.074;2022-10-31T11:15:53;14.50;99.90
2465;DHT22;1244;54.326;10.074;2022-10-31T11:18:22;14.50;99.90
2465;DHT22;1244;54.326;10.074;2022-10-31T11:20:54;14.60;99.90
2465;DHT22;1244;54.326;10.074;2022-10-31T11:23:22;14.60;99.90
2465;DHT22;1244;54.326;10.074;2022-10-31T11:25:58;14.70;99.90
2465;DHT22;1244;54.326;10.074;2022-10-31T11:28:25;14.80;99.90
2465;DHT22;1244;54.326;10.074;2022-10-31T11:30:56;14.80;99.90
2465;DHT22;1244;54.326;10.074;2022-10-31T11:33:32;14.70;99.90
2465;DHT22;1244;54.326;10.074;2022-10-31T11:36:01;14.70;99.90
2465;DHT22;1244;54.326;10.074;2022-10-31T11:38:34;15.00;99.90
2465;DHT22;1244;54.326;10.074;2022-10-31T11:41:09;14.90;99.90
2465;DHT22;1244;54.326;10.074;2022-10-31T11:43:35;14.90;99.90
2465;DHT22;1244;54.326;10.074;2022-10-31T11:46:09;15.10;99.90
2465;DHT22;1244;54.326;10.074;2022-10-31T11:48:36;15.20;99.90
2465;DHT22;1244;54.326;10.074;2022-10-31T11:51:02;15.50;99.90
2465;DHT22;1244;54.326;10.074;2022-10-31T11:53:30;15.80;99.90
2465;DHT22;1244;54.326;10.074;2022-10-31T11:56:16;16.70;99.90
2465;DHT22;1244;54.326;10.074;2022-10-31T11:58:42;17.20;99.90
2465;DHT22;1244;54.326;10.074;2022-10-31T12:01:29;18.10;99.90
2465;DHT22;1244;54.326;10.074;2022-10-31T12:04:10;19.00;99.90
2465;DHT22;1244;54.326;10.074;2022-10-31T12:06:43;18.00;99.90
2465;DHT22;1244;54.326;10.074;2022-10-31T12:09:26;16.90;99.90
2465;DHT22;1244;54.326;10.074;2022-10-31T12:12:17;16.60;99.90
2465;DHT22;1244;54.326;10.074;2022-10-31T12:17:47;16.00;99.90
2465;DHT22;1244;54.326;10.074;2022-10-31T12:20:44;15.90;99.90
2465;DHT22;1244;54.326;10.074;2022-10-31T12:23:38;15.80;99.90
2465;DHT22;1244;54.326;10.074;2022-10-31T12:26:16;16.80;99.90
2465;DHT22;1244;54.326;10.074;2022-10-31T12:28:58;18.60;99.90
2465;DHT22;1244;54.326;10.074;2022-10-31T12:31:32;19.10;99.90
2465;DHT22;1244;54.326;10.074;2022-10-31T12:47:26;16.60;99.90
2465;DHT22;1244;54.326;10.074;2022-10-31T12:50:12;16.30;99.90
2465;DHT22;1244;54.326;10.074;2022-10-31T12:52:45;16.30;99.90
2465;DHT22;1244;54.326;10.074;2022-10-31T12:55:26;16.20;99.90
2465;DHT22;1244;54.326;10.074;2022-10-31T12:58:00;16.20;99.90
2465;DHT22;1244;54.326;10.074;2022-10-31T13:00:27;16.10;99.90
2465;DHT22;1244;54.326;10.074;2022-10-31T13:03:21;16.10;99.90
2465;DHT22;1244;54.326;10.074;2022-10-31T13:05:54;15.80;99.90
2465;DHT22;1244;54.326;10.074;2022-10-31T13:08:35;15.80;99.90
2465;DHT22;1244;54.326;10.074;2022-10-31T13:11:16;16.10;99.90
2465;DHT22;1244;54.326;10.074;2022-10-31T13:14:11;17.00;99.90
2465;DHT22;1244;54.326;10.074;2022-10-31T13:16:40;19.00;99.90
2465;DHT22;1244;54.326;10.074;2022-10-31T13:19:36;20.40;99.90
2465;DHT22;1244;54.326;10.074;2022-10-31T13:24:54;21.70;99.90
2465;DHT22;1244;54.326;10.074;2022-10-31T13:27:25;21.90;99.90
2465;DHT22;1244;54.326;10.074;2022-10-31T13:32:25;20.90;99.90
2465;DHT22;1244;54.326;10.074;2022-10-31T13:34:55;21.80;99.90
2465;DHT22;1244;54.326;10.074;2022-10-31T13:37:41;21.90;99.90
2465;DHT22;1244;54.326;10.074;2022-10-31T13:40:37;21.20;99.90
2465;DHT22;1244;54.326;10.074;2022-10-31T13:45:55;18.70;99.90
2465;DHT22;1244;54.326;10.074;2022-10-31T13:50:59;18.50;99.90
2465;DHT22;1244;54.326;10.074;2022-10-31T13:53:45;19.10;99.90
2465;DHT22;1244;54.326;10.074;2022-10-31T13:56:16;19.70;99.90
2465;DHT22;1244;54.326;10.074;2022-10-31T14:01:30;20.10;99.90
2465;DHT22;1244;54.326;10.074;2022-10-31T14:04:07;20.30;99.90
2465;DHT22;1244;54.326;10.074;2022-10-31T14:06:57;19.80;99.90
2465;DHT22;1244;54.326;10.074;2022-10-31T14:12:04;18.80;99.90
2465;DHT22;1244;54.326;10.074;2022-10-31T14:14:41;17.50;99.90
2465;DHT22;1244;54.326;10.074;2022-10-31T14:17:17;16.70;99.90
2465;DHT22;1244;54.326;10.074;2022-10-31T14:20:19;16.20;99.90
2465;DHT22;1244;54.326;10.074;2022-10-31T14:22:46;15.80;99.90
2465;DHT22;1244;54.326;10.074;2022-10-31T14:25:44;16.60;99.90
2465;DHT22;1244;54.326;10.074;2022-10-31T14:28:33;16.90;99.90
2465;DHT22;1244;54.326;10.074;2022-10-31T14:31:00;17.20;99.90
2465;DHT22;1244;54.326;10.074;2022-10-31T14:33:28;16.60;99.90
2465;DHT22;1244;54.326;10.074;2022-10-31T14:36:25;16.00;99.90
2465;DHT22;1244;54.326;10.074;2022-10-31T14:41:35;15.30;99.90
2465;DHT22;1244;54.326;10.074;2022-10-31T14:52:14;15.00;99.90
2465;DHT22;1244;54.326;10.074;2022-10-31T14:54:45;14.80;99.90
2465;DHT22;1244;54.326;10.074;2022-10-31T14:57:19;14.70;99.90
2465;DHT22;1244;54.326;10.074;2022-10-31T14:59:50;14.60;99.90
2465;DHT22;1244;54.326;10.074;2022-10-31T15:02:23;14.40;99.90
2465;DHT22;1244;54.326;10.074;2022-10-31T15:04:51;14.30;99.90
2465;DHT22;1244;54.326;10.074;2022-10-31T15:07:23;14.20;99.90
2465;DHT22;1244;54.326;10.074;2022-10-31T15:10:04;14.10;99.90
2465;DHT22;1244;54.326;10.074;2022-10-31T15:12:32;14.00;99.90
2465;DHT22;1244;54.326;10.074;2022-10-31T15:15:14;14.00;99.90
2465;DHT22;1244;54.326;10.074;2022-10-31T15:17:44;13.90;99.90
2465;DHT22;1244;54.326;10.074;2022-10-31T15:20:12;14.00;99.90
2465;DHT22;1244;54.326;10.074;2022-10-31T15:22:42;14.00;99.90
2465;DHT22;1244;54.326;10.074;2022-10-31T15:25:17;13.90;99.90
2465;DHT22;1244;54.326;10.074;2022-10-31T15:27:43;13.80;99.90
2465;DHT22;1244;54.326;10.074;2022-10-31T15:30:22;13.80;99.90
2465;DHT22;1244;54.326;10.074;2022-10-31T15:32:48;13.70;99.90
2465;DHT22;1244;54.326;10.074;2022-10-31T15:35:26;13.70;99.90
2465;DHT22;1244;54.326;10.074;2022-10-31T15:37:52;13.80;99.90
2465;DHT22;1244;54.326;10.074;2022-10-31T15:40:21;13.80;99.90
2465;DHT22;1244;54.326;10.074;2022-10-31T15:42:53;13.80;99.90
2465;DHT22;1244;54.326;10.074;2022-10-31T15:45:25;13.70;99.90
2465;DHT22;1244;54.326;10.074;2022-10-31T15:48:00;13.70;99.90
2465;DHT22;1244;54.326;10.074;2022-10-31T15:50:38;13.60;99.90
2465;DHT22;1244;54.326;10.074;2022-10-31T15:53:13;13.60;99.90
2465;DHT22;1244;54.326;10.074;2022-10-31T15:55:50;13.60;99.90
2465;DHT22;1244;54.326;10.074;2022-10-31T15:58:17;13.40;99.90
2465;DHT22;1244;54.326;10.074;2022-10-31T16:00:43;13.40;99.90
2465;DHT22;1244;54.326;10.074;2022-10-31T16:05:49;13.40;99.90
2465;DHT22;1244;54.326;10.074;2022-10-31T16:11:21;13.20;99.90
2465;DHT22;1244;54.326;10.074;2022-10-31T16:14:00;13.20;99.90
2465;DHT22;1244;54.326;10.074;2022-10-31T16:16:28;13.20;99.90
2465;DHT22;1244;54.326;10.074;2022-10-31T16:18:55;13.20;99.90
2465;DHT22;1244;54.326;10.074;2022-10-31T16:21:34;13.20;99.90
2465;DHT22;1244;54.326;10.074;2022-10-31T16:24:27;13.10;99.90
2465;DHT22;1244;54.326;10.074;2022-10-31T16:27:15;13.10;99.90
2465;DHT22;1244;54.326;10.074;2022-10-31T16:29:43;13.10;99.90
2465;DHT22;1244;54.326;10.074;2022-10-31T16:35:19;13.10;99.90
2465;DHT22;1244;54.326;10.074;2022-10-31T16:37:43;12.90;99.90
2465;DHT22;1244;54.326;10.074;2022-10-31T16:40:17;13.00;99.90
2465;DHT22;1244;54.326;10.074;2022-10-31T16:42:44;13.00;99.90
2465;DHT22;1244;54.326;10.074;2022-10-31T16:45:24;13.00;99.90
2465;DHT22;1244;54.326;10.074;2022-10-31T16:47:50;13.10;99.90
2465;DHT22;1244;54.326;10.074;2022-10-31T16:50:26;12.90;99.90
2465;DHT22;1244;54.326;10.074;2022-10-31T16:52:52;13.00;99.90
2465;DHT22;1244;54.326;10.074;2022-10-31T16:55:19;13.00;99.90
2465;DHT22;1244;54.326;10.074;2022-10-31T16:57:48;13.00;99.90
2465;DHT22;1244;54.326;10.074;2022-10-31T17:00:17;13.00;99.90
2465;DHT22;1244;54.326;10.074;2022-10-31T17:02:45;12.90;99.90
2465;DHT22;1244;54.326;10.074;2022-10-31T17:05:13;13.00;99.90
2465;DHT22;1244;54.326;10.074;2022-10-31T17:07:39;13.00;99.90
2465;DHT22;1244;54.326;10.074;2022-10-31T17:10:05;13.00;99.90
2465;DHT22;1244;54.326;10.074;2022-10-31T17:12:31;13.00;99.90
2465;DHT22;1244;54.326;10.074;2022-10-31T17:14:56;13.00;99.90
2465;DHT22;1244;54.326;10.074;2022-10-31T17:17:22;12.90;99.90
2465;DHT22;1244;54.326;10.074;2022-10-31T17:19:48;12.90;99.90
2465;DHT22;1244;54.326;10.074;2022-10-31T17:22:14;12.90;99.90
2465;DHT22;1244;54.326;10.074;2022-10-31T17:24:40;12.90;99.90
2465;DHT22;1244;54.326;10.074;2022-10-31T17:27:08;12.90;99.90
2465;DHT22;1244;54.326;10.074;2022-10-31T17:29:36;12.80;99.90
2465;DHT22;1244;54.326;10.074;2022-10-31T17:32:02;12.90;99.90
2465;DHT22;1244;54.326;10.074;2022-10-31T17:34:29;12.90;99.90
2465;DHT22;1244;54.326;10.074;2022-10-31T17:36:54;12.90;99.90
2465;DHT22;1244;54.326;10.074;2022-10-31T17:39:20;12.80;99.90
2465;DHT22;1244;54.326;10.074;2022-10-31T17:41:50;12.80;99.90
2465;DHT22;1244;54.326;10.074;2022-10-31T17:44:17;12.80;99.90
2465;DHT22;1244;54.326;10.074;2022-10-31T17:46:42;12.70;99.90
2465;DHT22;1244;54.326;10.074;2022-10-31T17:49:10;12.70;99.90
2465;DHT22;1244;54.326;10.074;2022-10-31T17:51:36;12.60;99.90
2465;DHT22;1244;54.326;10.074;2022-10-31T17:54:03;12.60;99.90
2465;DHT22;1244;54.326;10.074;2022-10-31T17:56:30;12.70;99.90
2465;DHT22;1244;54.326;10.074;2022-10-31T17:58:56;12.60;99.90
2465;DHT22;1244;54.326;10.074;2022-10-31T18:01:22;12.50;99.90
2465;DHT22;1244;54.326;10.074;2022-10-31T18:03:51;12.40;99.90